Latest Weather Observations for Mildura

IDN60801

Issued at 7:42 pm EST Wednesday 12 August 2020 (issued every 10 minutes, with the page automatically refreshed every 10 minutes)

About weather observations | Map of weather stations | Latest weather observations for NSW | Other Formats
Station Details ID: 076031 Name: MILDURA AIRPORT Lat: -34.24 Lon: 142.09 Height: 50.0 m
Data from the previous 72 hours. | See also: Recent months at Mildura
Date/Time
EST
Temp
°C
App
Temp
°C
Dew
Point
°C
Rel
Hum
%
Delta-T
°C
Wind Press
QNH
hPa
Press
MSL
hPa
Rain since
9am
mm
Dir  Spd
km/h
Gust
km/h
Spd
kts
Gust
kts
12/07:30pm 12.2 10.4 12.2 100 0.0 NNE 13 17 7 9 1009.3 1009.3 6.8
12/07:00pm 12.4 10.9 11.9 97 0.3 NNE 11 15 6 8 1009.1 1009.1 6.8
12/06:38pm 12.6 11.1 11.8 95 0.4 NE 11 17 6 9 1008.5 1008.5 6.8
12/06:30pm 12.5 11.7 11.7 95 0.4 NE 7 13 4 7 1008.4 1008.4 6.8
12/06:00pm 12.4 9.3 11.6 95 0.4 W 19 28 10 15 1009.2 1009.2 2.2
12/05:54pm 12.7 9.2 10.9 89 0.9 W 20 33 11 18 1009.0 1009.0 1.0
12/05:30pm 16.8 16.0 11.1 69 3.1 N 6 7 3 4 1007.7 1007.7 0.0
12/05:00pm 17.3 15.1 10.7 65 3.6 NNW 13 19 7 10 1007.4 1007.4 0.0
12/04:30pm 18.2 15.8 10.1 59 4.3 NNW 13 20 7 11 1006.7 1006.7 0.0
12/04:00pm 17.8 15.4 10.2 61 4.1 NNW 13 19 7 10 1006.8 1006.8 0.0
12/03:30pm 17.9 14.8 10.3 61 4.1 NNW 17 26 9 14 1006.9 1006.9 0.0
12/03:00pm 17.9 14.8 10.3 61 4.1 NNW 17 26 9 14 1006.8 1006.8 0.0
12/02:30pm 18.0 15.2 10.1 60 4.2 NNW 15 22 8 12 1006.8 1006.8 0.0
12/02:00pm 17.6 14.7 9.8 60 4.1 NNW 15 22 8 12 1006.9 1006.9 0.0
12/01:30pm 16.7 14.3 9.9 64 3.6 NNW 13 20 7 11 1007.3 1007.3 0.0
12/01:00pm 16.6 14.2 10.2 66 3.4 NNW 13 19 7 10 1007.8 1007.8 0.0
12/12:30pm 16.8 14.4 10.0 64 3.6 N 13 19 7 10 1008.1 1008.1 0.0
12/12:00pm 16.3 13.7 10.6 69 3.0 NNW 15 20 8 11 1008.4 1008.4 0.0
12/11:30am 16.0 13.0 10.7 71 2.8 NNW 17 20 9 11 1008.8 1008.8 0.0
12/11:00am 14.6 11.9 10.4 76 2.2 N 15 20 8 11 1008.9 1008.9 0.0
12/10:30am 15.2 11.6 10.4 73 2.5 N 20 28 11 15 1008.8 1008.8 0.0
12/10:00am 14.1 9.7 10.3 78 2.0 NNE 24 30 13 16 1009.1 1009.1 0.0
12/09:30am 13.3 9.4 10.7 84 1.4 NNE 22 28 12 15 1009.2 1009.2 0.0
12/09:00am 12.6 9.0 10.7 88 1.0 N 20 26 11 14 1009.6 1009.6 0.8
12/08:30am 12.0 8.4 10.7 92 0.7 N 20 28 11 15 1009.5 1009.5 0.8
12/08:00am 11.1 8.6 10.9 99 0.1 NNE 15 20 8 11 1009.4 1009.4 0.8
12/07:30am 9.8 6.9 9.8 100 0.0 NNE 15 19 8 10 1009.5 1009.5 0.8
12/07:00am 9.8 6.9 9.8 100 0.0 NNE 15 17 8 9 1009.4 1009.4 0.8
12/06:30am 9.5 6.9 9.5 100 0.0 NNE 13 17 7 9 1009.2 1009.2 0.8
12/06:00am 9.5 6.9 9.5 100 0.0 NE 13 17 7 9 1009.3 1009.3 0.8
12/05:30am 9.6 6.7 9.6 100 0.0 NE 15 17 8 9 1009.3 1009.3 0.8
12/05:00am 9.8 7.3 9.8 100 0.0 NE 13 15 7 8 1009.3 1009.3 0.8
12/04:30am 9.6 7.5 9.6 100 0.0 NE 11 13 6 7 1009.3 1009.3 0.8
12/04:00am 9.8 7.3 9.8 100 0.0 NNE 13 15 7 8 1009.4 1009.4 0.8
12/03:30am 10.0 8.0 10.0 100 0.0 NNE 11 13 6 7 1009.8 1009.9 0.8
12/03:00am 10.1 7.7 10.1 100 0.0 NNE 13 15 7 8 1009.8 1009.9 0.8
12/02:30am 10.7 8.4 10.5 99 0.1 NNE 13 15 7 8 1010.1 1010.2 0.8
12/02:00am 11.4 8.9 10.9 97 0.3 NNE 15 19 8 10 1010.5 1010.6 0.8
12/01:30am 11.5 9.4 11.0 97 0.3 NE 13 17 7 9 1010.6 1010.7 0.8
12/01:00am 11.5 9.0 11.0 97 0.3 NNE 15 19 8 10 1010.8 1010.9 0.8
12/12:30am 11.5 8.7 11.2 98 0.2 NE 17 20 9 11 1011.0 1011.1 0.8
12/12:00am 11.5 9.0 11.2 98 0.2 NNE 15 17 8 9 1011.5 1011.6 0.8
 
Date/Time
EST
Temp
°C
App
Temp
°C
Dew
Point
°C
Rel
Hum
%
Delta-T
°C
Wind Press
QNH
hPa
Press
MSL
hPa
Rain since
9am
mm
Dir  Spd
km/h
Gust
km/h
Spd
kts
Gust
kts
11/11:30pm 11.6 8.6 10.8 95 0.4 NNE 17 20 9 11 1011.6 1011.7 0.8
11/11:00pm 11.7 8.8 11.1 96 0.3 NNE 17 19 9 10 1011.9 1012.0 0.8
11/10:30pm 11.9 8.3 10.6 92 0.7 NNE 20 26 11 14 1012.2 1012.3 0.6
11/10:00pm 12.2 8.2 10.3 88 1.0 NNE 22 32 12 17 1012.3 1012.4 0.4
11/09:30pm 12.6 8.9 9.6 82 1.5 NNE 19 26 10 14 1012.1 1012.2 0.4
11/09:00pm 12.7 9.0 9.5 81 1.6 NE 19 26 10 14 1012.2 1012.3 0.4
11/08:30pm 12.6 9.7 9.6 82 1.5 NE 15 19 8 10 1012.2 1012.3 0.4
11/08:00pm 12.4 9.2 10.0 85 1.2 NE 17 20 9 11 1012.2 1012.3 0.4
11/07:30pm 12.8 9.8 9.1 78 1.9 NE 15 19 8 10 1012.2 1012.3 0.0
11/07:00pm 13.0 10.0 9.1 77 2.0 NE 15 20 8 11 1011.8 1011.9 0.0
11/06:30pm 12.8 9.9 9.6 81 1.6 NE 15 19 8 10 1012.0 1012.1 0.0
11/06:00pm 12.8 10.2 9.4 80 1.7 NNE 13 15 7 8 1012.3 1012.4 0.0
11/05:30pm 13.4 10.8 9.3 76 2.1 NE 13 19 7 10 1011.8 1011.9 0.0
11/05:00pm 13.7 10.6 9.0 73 2.4 NNE 15 20 8 11 1011.9 1012.0 0.0
11/04:30pm 14.0 11.4 9.2 73 2.4 NE 13 20 7 11 1011.3 1011.4 0.0
11/04:00pm 13.8 10.4 9.3 74 2.3 NE 17 20 9 11 1011.4 1011.5 0.0
11/03:30pm 14.1 10.3 8.9 71 2.6 NNE 19 26 10 14 1012.0 1012.1 0.0
11/03:00pm 14.4 9.5 8.6 68 2.9 NNE 24 30 13 16 1011.9 1012.0 0.0
11/02:30pm 14.5 9.5 8.2 66 3.2 NNE 24 32 13 17 1012.3 1012.4 0.0
11/02:00pm 14.6 10.4 8.3 66 3.2 NNE 20 26 11 14 1012.6 1012.7 0.0
11/01:30pm 14.4 9.8 8.1 66 3.2 NNE 22 30 12 16 1012.8 1012.9 0.0
11/01:00pm 14.5 10.3 8.2 66 3.2 NNE 20 28 11 15 1013.7 1013.8 0.0
11/12:30pm 13.6 9.3 8.0 69 2.8 NNE 20 28 11 15 1014.7 1014.8 0.0
11/12:00pm 13.2 9.5 7.9 70 2.6 N 17 24 9 13 1015.4 1015.5 0.0
11/11:30am 12.4 8.1 7.9 74 2.2 NNE 20 26 11 14 1015.3 1015.4 0.0
11/11:00am 12.0 7.2 7.5 74 2.2 NE 22 26 12 14 1015.7 1015.8 0.0
11/10:30am 11.5 6.3 7.4 76 2.0 NNE 24 30 13 16 1015.9 1016.0 0.0
11/10:00am 11.4 6.3 7.5 77 1.9 NNE 24 30 13 16 1016.3 1016.4 0.0
11/09:30am 10.6 6.3 7.1 79 1.7 NE 19 22 10 12 1016.9 1017.0 0.0
11/09:00am 10.0 6.4 6.7 80 1.5 NE 15 17 8 9 1017.0 1017.1 0.0
11/08:30am 9.8 6.1 6.5 80 1.5 NNE 15 17 8 9 1017.3 1017.4 0.0
11/08:00am 9.6 5.9 6.5 81 1.4 NNE 15 17 8 9 1017.1 1017.2 0.0
11/07:30am 9.1 5.7 5.8 80 1.5 NNE 13 17 7 9 1017.3 1017.4 0.0
11/07:00am 9.4 5.2 5.6 77 1.7 NNE 17 20 9 11 1016.6 1016.7 0.0
11/06:30am 9.5 4.7 5.7 77 1.7 NE 20 26 11 14 1016.2 1016.3 0.0
11/06:00am 9.3 5.1 5.9 79 1.6 NE 17 22 9 12 1016.6 1016.7 0.0
11/05:30am 8.5 5.1 6.0 84 1.1 NNE 13 15 7 8 1016.9 1017.0 0.0
11/05:00am 8.6 5.2 5.9 83 1.2 NE 13 15 7 8 1016.7 1016.8 0.0
11/04:30am 8.8 5.4 5.7 81 1.4 NNE 13 17 7 9 1016.6 1016.7 0.0
11/04:00am 8.4 5.0 5.9 84 1.1 NE 13 15 7 8 1016.5 1016.6 0.0
11/03:30am 8.1 5.0 5.4 83 1.2 NE 11 13 6 7 1016.9 1017.0 0.0
11/03:00am 8.1 5.4 5.6 84 1.1 NE 9 13 5 7 1017.5 1017.6 0.0
11/02:30am 7.5 4.7 5.3 86 1.0 NNE 9 11 5 6 1018.2 1018.2 0.0
11/02:00am 8.1 5.4 5.7 85 1.1 NE 9 9 5 5 1018.4 1018.4 0.0
11/01:30am 8.4 5.7 5.7 83 1.2 NE 9 11 5 6 1018.5 1018.5 0.0
11/01:00am 8.5 5.8 5.8 83 1.2 NE 9 13 5 7 1018.4 1018.4 0.0
11/12:30am 7.8 5.1 5.6 86 1.0 NE 9 11 5 6 1018.7 1018.7 0.0
11/12:00am 8.3 5.6 5.6 83 1.2 ENE 9 11 5 6 1018.4 1018.4 0.0
 
Date/Time
EST
Temp
°C
App
Temp
°C
Dew
Point
°C
Rel
Hum
%
Delta-T
°C
Wind Press
QNH
hPa
Press
MSL
hPa
Rain since
9am
mm
Dir  Spd
km/h
Gust
km/h
Spd
kts
Gust
kts
10/11:30pm 7.7 5.5 6.3 91 0.6 ENE 7 9 4 5 1018.6 1018.6 0.0
10/11:00pm 8.0 5.9 6.6 91 0.6 ENE 7 11 4 6 1018.9 1018.9 0.0
10/10:30pm 8.2 6.1 6.7 90 0.7 ENE 7 9 4 5 1019.1 1019.1 0.0
10/10:00pm 8.7 6.6 6.7 87 0.9 NE 7 9 4 5 1019.1 1019.1 0.0
10/09:30pm 9.1 7.2 6.9 86 1.0 NE 6 7 3 4 1019.4 1019.4 0.0
10/09:00pm 9.5 8.8 6.9 84 1.2 CALM 0 0 0 0 1019.3 1019.3 0.0
10/08:30pm 9.8 8.0 7.2 84 1.2 ENE 6 7 3 4 1019.1 1019.1 0.0
10/08:00pm 10.5 8.7 7.2 80 1.6 E 6 7 3 4 1019.1 1019.1 0.0
10/07:30pm 11.0 9.1 6.9 76 2.0 ENE 6 7 3 4 1019.0 1019.0 0.0
10/07:00pm 12.6 11.6 7.3 70 2.6 N 2 6 1 3 1018.8 1018.8 0.0
10/06:30pm 14.1 12.0 6.7 61 3.6 NNW 7 9 4 5 1018.9 1018.9 0.0
10/06:00pm 15.5 13.0 6.5 55 4.4 N 9 13 5 7 1018.6 1018.6 0.0
10/05:30pm 16.7 14.7 7.1 53 4.8 NNW 7 11 4 6 1018.7 1018.7 0.0
10/05:00pm 17.1 13.8 6.6 50 5.2 N 13 20 7 11 1018.7 1018.7 0.0
10/04:30pm 17.2 13.8 6.1 48 5.4 N 13 17 7 9 1018.8 1018.8 0.0
10/04:00pm 17.1 14.3 6.9 51 5.1 N 11 19 6 10 1018.7 1018.7 0.0
10/03:30pm 17.1 14.1 7.7 54 4.7 N 13 17 7 9 1018.8 1018.8 0.0
10/03:00pm 17.0 13.5 7.1 52 4.9 NNE 15 22 8 12 1018.9 1018.9 0.0
10/02:30pm 17.2 14.6 7.8 54 4.8 NE 11 20 6 11 1019.2 1019.2 0.0
10/02:00pm 16.7 14.1 7.6 55 4.6 NE 11 17 6 9 1019.8 1019.8 0.0
10/01:30pm 16.3 15.0 7.8 57 4.3 SE 4 9 2 5 1020.5 1020.5 0.0
10/01:00pm 15.4 13.7 7.4 59 4.0 SSE 6 9 3 5 1021.1 1021.1 0.0
10/12:30pm 15.3 13.4 6.6 56 4.2 N 6 13 3 7 1021.5 1021.5 0.0
10/12:00pm 14.7 13.0 7.7 63 3.5 NE 6 11 3 6 1021.7 1021.7 0.0
10/11:30am 13.5 11.4 8.1 70 2.7 ENE 9 13 5 7 1021.9 1021.9 0.0
10/11:00am 12.0 9.4 7.7 75 2.1 E 11 15 6 8 1021.9 1021.9 0.0
10/10:30am 11.1 8.9 7.8 80 1.6 ENE 9 13 5 7 1022.2 1022.2 0.0
10/10:00am 10.0 7.3 7.3 83 1.3 E 11 19 6 10 1022.2 1022.2 0.0
10/09:30am 8.8 6.2 7.7 93 0.5 ESE 11 17 6 9 1022.2 1022.2 0.0
10/09:00am 6.5 4.0 6.4 99 0.0 SE 9 13 5 7 1022.2 1022.2 0.0
10/08:30am 5.3 2.5 5.3 100 0.0 SSE 9 13 5 7 1022.1 1022.1 0.0
10/08:00am 4.3 1.9 4.3 100 0.0 S 6 9 3 5 1021.7 1021.7 0.0
10/07:59am 4.2 1.8 4.2 100 0.0 S 6 9 3 5 1021.7 1021.7 0.0
10/07:30am 3.5 0.8 3.5 100 0.0 SSW 7 9 4 5 1021.4 1021.4 0.0
10/07:01am 3.5 1.0 3.5 100 0.0 SSW 6 9 3 5 1021.0 1021.0 0.0
10/07:00am 3.6 1.1 3.6 100 0.0 SSW 6 9 3 5 1020.9 1020.9 0.0
10/06:30am 4.0 1.4 4.0 100 0.0 S 7 11 4 6 1020.8 1020.8 0.0
10/06:00am 4.2 1.2 4.2 100 0.0 S 9 11 5 6 1020.7 1020.7 0.0
10/05:30am 4.3 1.7 4.3 100 0.0 S 7 9 4 5 1020.5 1020.5 0.0
10/05:00am 4.5 2.0 4.5 100 0.0 S 7 11 4 6 1020.5 1020.5 0.0
10/04:30am 4.9 2.4 4.9 100 0.0 SSW 7 11 4 6 1020.1 1020.1 0.0
10/04:00am 5.4 2.7 5.4 100 0.0 SSW 9 11 5 6 1020.1 1020.1 0.0
10/03:30am 5.8 3.1 5.8 100 0.0 S 9 13 5 7 1020.3 1020.3 0.0
10/03:00am 5.8 2.8 5.8 100 0.0 SSW 11 13 6 7 1020.3 1020.3 0.0
10/02:30am 6.0 3.4 6.0 100 0.0 SSW 9 13 5 7 1020.3 1020.3 0.0
10/02:00am 6.2 4.0 6.2 100 0.0 SSW 7 9 4 5 1020.3 1020.3 0.0
10/01:30am 6.4 3.8 6.3 99 0.0 SSW 9 11 5 6 1020.2 1020.2 0.0
10/01:00am 6.9 4.1 6.9 100 0.0 WSW 11 13 6 7 1020.1 1020.1 0.0
10/12:30am 6.9 4.1 6.9 100 0.0 WSW 11 17 6 9 1020.1 1020.1 0.0
10/12:00am 7.1 4.7 7.1 100 0.0 W 9 13 5 7 1020.1 1020.1 0.0
 
Date/Time
EST
Temp
°C
App
Temp
°C
Dew
Point
°C
Rel
Hum
%
Delta-T
°C
Wind Press
QNH
hPa
Press
MSL
hPa
Rain since
9am
mm
Dir  Spd
km/h
Gust
km/h
Spd
kts
Gust
kts
09/11:30pm 7.4 5.1 7.4 100 0.0 W 9 13 5 7 1019.9 1019.9 0.0
09/11:00pm 7.5 5.6 7.5 100 0.0 W 7 9 4 5 1019.8 1019.8 0.0
09/10:30pm 7.7 5.4 7.6 99 0.0 WSW 9 11 5 6 1019.7 1019.7 0.0
09/10:00pm 8.3 6.6 8.2 99 0.0 WSW 7 11 4 6 1019.7 1019.7 0.0
09/09:30pm 9.0 7.4 8.9 99 0.0 SW 7 9 4 5 1019.7 1019.7 0.0
09/09:00pm 9.9 8.1 9.4 97 0.2 WSW 9 11 5 6 1019.6 1019.6 0.0
09/08:30pm 10.1 8.3 9.5 96 0.3 W 9 13 5 7 1019.6 1019.6 0.0
09/08:00pm 10.8 9.5 9.9 94 0.5 W 7 11 4 6 1019.6 1019.6 0.0

Other formats

Comma delimited format used in spreadsheet applications
http://www.bom.gov.au/fwo/IDN60801/IDN60801.94693.axf

JavaScript Object Notation format (JSON) in row-major order
http://www.bom.gov.au/fwo/IDN60801/IDN60801.94693.json

Data quality

Most of these data are generated automatically and are frequently updated. Quality checks on data are not normally performed. It is possible for incorrect values to appear. Refer to information at About Latest Weather Observations and please check the disclaimer before using these data.